Time;durP1;ratioP1;P1;durP2;ratioP2;P2;SDS_P1;SDS_P2;PMS_P1;PMS_P2;Temp;Humidity;BMP_temperature;BMP_pressure;BME280_temperature;BME280_humidity;BME280_pressure;Samples;Min_cycle;Max_cycle;Signal;HPM_P1;HPM_P2
2023/01/02 00:00:58;;;;;;;17.33;10.43;;;9.80;99.90;;;;;;4984449;28;20145;-61
2023/01/02 00:03:24;;;;;;;21.75;11.18;;;9.60;99.90;;;;;;4985087;28;20077;-61
2023/01/02 00:05:49;;;;;;;18.25;11.80;;;9.80;99.90;;;;;;4985218;28;20054;-61
2023/01/02 00:08:16;;;;;;;20.30;12.88;;;9.40;99.90;;;;;;4984443;28;20073;-63
2023/01/02 00:10:43;;;;;;;22.58;13.02;;;9.40;99.90;;;;;;4984592;28;20038;-60
2023/01/02 00:13:09;;;;;;;19.40;12.40;;;9.60;99.90;;;;;;4984948;28;20058;-61
2023/01/02 00:15:34;;;;;;;21.02;12.93;;;9.90;99.90;;;;;;4984515;28;20118;-61
2023/01/02 00:18:00;;;;;;;19.90;13.60;;;9.90;99.90;;;;;;4984339;28;20042;-61
2023/01/02 00:20:26;;;;;;;20.27;13.85;;;9.50;99.90;;;;;;4982423;28;20057;-61
2023/01/02 00:22:51;;;;;;;21.48;14.52;;;9.90;99.90;;;;;;4974362;28;20042;-61
2023/01/02 00:25:17;;;;;;;21.63;14.95;;;9.60;99.90;;;;;;4965566;28;20057;-61
2023/01/02 00:27:43;;;;;;;19.42;14.98;;;9.70;99.90;;;;;;4965013;28;20085;-60
2023/01/02 00:30:09;;;;;;;23.13;16.15;;;10.00;99.90;;;;;;4966567;28;20051;-60
2023/01/02 00:32:35;;;;;;;21.20;15.90;;;10.00;99.90;;;;;;4966325;28;20403;-60
2023/01/02 00:35:00;;;;;;;18.10;12.18;;;10.00;99.90;;;;;;4965059;28;20039;-60
2023/01/02 00:37:26;;;;;;;18.95;13.48;;;10.00;99.90;;;;;;4966074;28;20825;-61
2023/01/02 00:39:52;;;;;;;22.20;14.23;;;10.20;99.90;;;;;;4966150;28;20038;-61
2023/01/02 00:42:17;;;;;;;22.10;16.05;;;9.90;99.90;;;;;;4965706;28;20082;-61
2023/01/02 00:44:43;;;;;;;25.80;18.02;;;9.80;99.90;;;;;;4965873;28;20057;-60
2023/01/02 00:47:08;;;;;;;22.35;16.10;;;10.20;99.90;;;;;;4965607;28;20047;-61
2023/01/02 00:49:34;;;;;;;22.67;15.38;;;9.80;99.90;;;;;;4965396;28;20057;-61
2023/01/02 00:52:00;;;;;;;26.13;16.00;;;9.80;99.90;;;;;;4964834;28;20038;-59
2023/01/02 00:54:25;;;;;;;26.02;17.08;;;10.20;99.90;;;;;;4964230;28;20134;-60
2023/01/02 00:56:51;;;;;;;26.80;18.52;;;10.20;99.90;;;;;;4965139;28;20074;-60
2023/01/02 00:59:16;;;;;;;28.92;18.20;;;10.10;99.90;;;;;;4966199;28;20035;-61
2023/01/02 01:01:42;;;;;;;27.63;20.02;;;10.00;99.90;;;;;;4980971;28;20035;-60
2023/01/02 01:04:08;;;;;;;28.98;20.65;;;10.20;99.90;;;;;;4966485;28;20073;-61
2023/01/02 01:06:33;;;;;;;31.15;19.90;;;10.00;99.90;;;;;;4966495;28;20055;-60
2023/01/02 01:08:59;;;;;;;27.67;19.80;;;10.10;99.90;;;;;;4965391;28;20453;-61
2023/01/02 01:11:25;;;;;;;27.83;18.65;;;10.00;99.90;;;;;;4965273;28;20073;-60
2023/01/02 01:13:51;;;;;;;32.08;21.38;;;9.90;99.90;;;;;;4965477;28;20101;-61
2023/01/02 01:16:19;;;;;;;33.65;21.38;;;10.10;99.90;;;;;;4965058;28;20058;-60
2023/01/02 01:18:45;;;;;;;32.28;20.70;;;9.80;99.90;;;;;;4965459;28;20043;-61
2023/01/02 01:21:17;;;;;;;31.38;21.33;;;10.00;99.90;;;;;;4971384;28;20053;-61
2023/01/02 01:23:43;;;;;;;28.55;19.67;;;10.20;99.90;;;;;;4985076;28;20046;-61
2023/01/02 01:26:11;;;;;;;23.75;16.92;;;10.10;99.90;;;;;;4985463;28;20386;-61
2023/01/02 01:28:37;;;;;;;27.45;18.13;;;10.20;99.90;;;;;;4986406;28;20043;-60
2023/01/02 01:31:05;;;;;;;23.05;15.57;;;9.90;99.90;;;;;;4989029;28;20046;-60
2023/01/02 01:33:31;;;;;;;29.95;19.48;;;10.40;99.90;;;;;;4988052;28;20402;-60
2023/01/02 01:36:02;;;;;;;27.33;16.67;;;9.90;99.90;;;;;;4988208;28;20133;-59
2023/01/02 01:38:28;;;;;;;28.17;16.48;;;10.40;99.90;;;;;;4988162;28;20045;-60
2023/01/02 01:40:53;;;;;;;26.08;18.52;;;10.40;99.90;;;;;;4987983;28;20118;-60
2023/01/02 01:43:45;;;;;;;29.58;20.67;;;10.30;99.90;;;;;;4986299;28;20050;-60
2023/01/02 01:46:42;;;;;;;30.35;20.27;;;10.40;99.90;;;;;;4988399;28;20516;-61
2023/01/02 01:49:13;;;;;;;34.72;25.30;;;10.00;99.90;;;;;;4984136;28;20050;-61
2023/01/02 01:51:45;;;;;;;36.28;23.52;;;10.50;99.90;;;;;;4988569;28;20371;-59
2023/01/02 01:54:15;;;;;;;38.30;24.90;;;10.50;99.90;;;;;;4988585;28;20057;-60
2023/01/02 01:56:47;;;;;;;36.45;25.85;;;10.50;99.90;;;;;;4986844;28;20046;-61
2023/01/02 01:59:14;;;;;;;32.15;21.67;;;10.40;99.90;;;;;;4988859;28;20046;-60
2023/01/02 02:01:41;;;;;;;33.92;23.10;;;10.60;99.90;;;;;;4988835;28;20050;-60
2023/01/02 02:04:10;;;;;;;24.73;16.20;;;10.10;99.90;;;;;;4988339;28;20050;-60
2023/01/02 02:06:36;;;;;;;27.55;18.98;;;10.60;99.90;;;;;;4987097;28;20082;-59
2023/01/02 02:09:15;;;;;;;32.80;23.08;;;10.60;99.90;;;;;;4988539;28;20047;-61
2023/01/02 02:11:42;;;;;;;33.15;21.80;;;10.30;99.90;;;;;;4987173;28;20447;-61
2023/01/02 02:14:08;;;;;;;26.60;18.67;;;10.20;99.90;;;;;;4988133;28;20421;-61
2023/01/02 02:16:52;;;;;;;20.58;11.32;;;10.20;99.90;;;;;;4988175;28;20042;-61
2023/01/02 02:19:20;;;;;;;32.20;20.83;;;10.30;99.90;;;;;;5002619;28;20125;-60
2023/01/02 02:22:20;;;;;;;30.65;18.88;;;10.30;99.90;;;;;;4985232;28;20324;-60
2023/01/02 02:25:07;;;;;;;33.10;19.35;;;10.40;99.90;;;;;;4969029;28;20050;-60
2023/01/02 02:28:03;;;;;;;27.60;19.48;;;10.30;99.90;;;;;;4967529;28;20526;-61
2023/01/02 02:30:34;;;;;;;34.33;20.23;;;10.80;99.90;;;;;;4968654;28;20422;-61
2023/01/02 02:33:31;;;;;;;28.10;15.93;;;10.60;99.90;;;;;;4967310;28;20097;-61
2023/01/02 02:36:18;;;;;;;28.45;19.88;;;10.80;99.90;;;;;;4968574;28;20363;-60
2023/01/02 02:38:53;;;;;;;25.45;12.80;;;10.70;99.90;;;;;;4968917;28;20095;-60
2023/01/02 02:41:51;;;;;;;26.23;16.92;;;11.00;99.90;;;;;;4966440;28;20089;-61
2023/01/02 02:44:29;;;;;;;24.27;15.35;;;10.60;99.90;;;;;;4951937;28;20101;-61
2023/01/02 02:47:34;;;;;;;26.45;17.60;;;10.90;99.90;;;;;;4968660;28;20050;-61
2023/01/02 02:50:27;;;;;;;22.02;15.30;;;10.80;99.90;;;;;;4968175;28;20043;-60
2023/01/02 02:53:26;;;;;;;18.42;9.20;;;11.00;99.90;;;;;;4968662;28;20563;-59
2023/01/02 02:55:56;;;;;;;16.50;9.00;;;10.90;99.90;;;;;;4936237;28;20135;-60
2023/01/02 02:58:24;;;;;;;23.42;16.55;;;10.90;99.90;;;;;;4966961;28;20047;-60
2023/01/02 03:01:04;;;;;;;25.25;17.00;;;11.00;99.90;;;;;;4968330;28;20433;-60
2023/01/02 03:03:29;;;;;;;24.40;15.77;;;10.80;99.90;;;;;;4966254;28;20236;-61
2023/01/02 03:06:17;;;;;;;22.13;13.63;;;10.50;99.90;;;;;;4967906;28;20122;-59
2023/01/02 03:09:17;;;;;;;20.48;12.15;;;11.00;99.90;;;;;;4967973;28;20130;-61
2023/01/02 03:12:06;;;;;;;26.98;15.95;;;10.60;99.90;;;;;;4967431;28;20057;-61
2023/01/02 03:14:49;;;;;;;20.13;13.43;;;10.50;99.90;;;;;;4967819;28;20047;-61
2023/01/02 03:17:46;;;;;;;20.65;10.98;;;10.50;99.90;;;;;;4983219;28;20046;-60
2023/01/02 03:20:15;;;;;;;23.50;15.23;;;10.60;99.90;;;;;;4968104;28;20178;-61
2023/01/02 03:22:46;;;;;;;19.92;13.90;;;11.10;99.90;;;;;;4975205;28;20051;-60
2023/01/02 03:25:14;;;;;;;22.92;14.05;;;11.20;99.90;;;;;;4967518;28;20575;-61
2023/01/02 03:27:43;;;;;;;14.23;7.70;;;11.00;99.90;;;;;;4981279;28;20093;-61
2023/01/02 03:30:21;;;;;;;23.95;13.32;;;11.20;99.90;;;;;;4965442;28;20078;-61
2023/01/02 03:32:56;;;;;;;15.05;7.97;;;10.60;99.90;;;;;;4967589;28;20039;-61
2023/01/02 03:35:44;;;;;;;27.40;14.48;;;10.80;99.90;;;;;;4967324;28;20065;-61
2023/01/02 03:38:14;;;;;;;21.25;14.18;;;11.20;99.90;;;;;;4967395;28;20086;-61
2023/01/02 03:40:47;;;;;;;25.92;14.68;;;10.80;99.90;;;;;;4966776;28;20422;-59
2023/01/02 03:43:28;;;;;;;20.38;13.40;;;10.60;99.90;;;;;;4966394;28;20134;-61
2023/01/02 03:46:08;;;;;;;14.98;9.65;;;10.60;99.90;;;;;;4967461;28;20049;-61
2023/01/02 03:49:00;;;;;;;19.63;10.48;;;11.20;99.90;;;;;;4967288;28;20047;-60
2023/01/02 03:51:26;;;;;;;19.02;12.80;;;11.20;99.90;;;;;;4966345;28;20042;-61
2023/01/02 03:53:53;;;;;;;20.88;12.25;;;11.20;99.90;;;;;;4967121;28;20065;-61
2023/01/02 03:56:35;;;;;;;19.40;11.20;;;11.20;99.90;;;;;;4981568;28;20046;-61
2023/01/02 03:59:14;;;;;;;18.10;12.18;;;11.40;99.90;;;;;;4967187;28;20089;-61
2023/01/02 04:02:03;;;;;;;15.15;9.60;;;10.80;99.90;;;;;;4966908;28;20071;-61
2023/01/02 04:04:43;;;;;;;19.65;11.45;;;11.30;99.90;;;;;;4966943;28;20102;-61
2023/01/02 04:07:15;;;;;;;23.88;12.52;;;11.00;99.90;;;;;;4966829;28;20458;-61
2023/01/02 04:09:43;;;;;;;22.38;11.90;;;10.70;99.90;;;;;;4966954;28;20082;-61
2023/01/02 04:12:12;;;;;;;18.13;12.10;;;11.00;99.90;;;;;;4965715;28;20050;-60
2023/01/02 04:14:53;;;;;;;16.00;9.10;;;11.30;99.90;;;;;;4966183;28;20058;-59
2023/01/02 04:17:21;;;;;;;16.30;10.68;;;10.90;99.90;;;;;;4967677;28;20046;-61
2023/01/02 04:19:51;;;;;;;18.40;11.25;;;10.90;99.90;;;;;;4981657;28;20050;-60
2023/01/02 04:22:22;;;;;;;18.90;11.95;;;10.70;99.90;;;;;;4974545;28;20047;-61
2023/01/02 04:25:12;;;;;;;14.80;9.00;;;11.30;99.90;;;;;;4986243;28;20449;-61
2023/01/02 04:27:57;;;;;;;18.38;11.52;;;11.10;99.90;;;;;;4984153;28;20082;-60
2023/01/02 04:30:24;;;;;;;18.23;11.35;;;11.20;99.90;;;;;;4986164;28;20050;-60
2023/01/02 04:32:50;;;;;;;16.40;10.60;;;10.90;99.90;;;;;;4986008;28;20051;-60
2023/01/02 04:35:22;;;;;;;21.23;12.68;;;11.20;99.90;;;;;;4986005;28;20449;-60
2023/01/02 04:37:48;;;;;;;23.65;12.80;;;10.70;99.90;;;;;;4984574;28;20089;-60
2023/01/02 04:40:36;;;;;;;21.27;12.70;;;11.20;99.90;;;;;;4985214;28;20058;-60
2023/01/02 04:43:22;;;;;;;21.27;12.23;;;10.70;99.90;;;;;;4985169;28;20129;-60
2023/01/02 04:45:48;;;;;;;20.92;12.30;;;10.90;99.90;;;;;;4985122;28;21064;-61
2023/01/02 04:48:15;;;;;;;20.27;13.02;;;11.00;99.90;;;;;;4986084;28;20097;-60
2023/01/02 04:50:40;;;;;;;20.10;12.32;;;10.90;99.90;;;;;;4985479;28;20046;-61
2023/01/02 04:53:06;;;;;;;17.67;12.43;;;10.70;99.90;;;;;;4985069;28;20049;-60
2023/01/02 04:55:32;;;;;;;22.10;11.68;;;11.10;99.90;;;;;;4985513;28;20038;-60
2023/01/02 04:57:58;;;;;;;22.88;12.73;;;10.70;99.90;;;;;;4983357;28;20058;-60
2023/01/02 05:00:24;;;;;;;19.35;11.50;;;10.60;99.90;;;;;;4985215;28;20041;-60
2023/01/02 05:02:49;;;;;;;15.48;9.48;;;10.70;99.90;;;;;;4985684;28;20053;-60
2023/01/02 05:05:15;;;;;;;21.20;11.98;;;10.70;99.90;;;;;;4988392;28;20084;-60
2023/01/02 05:07:41;;;;;;;18.40;12.02;;;11.10;99.90;;;;;;4989715;28;20097;-60
2023/01/02 05:10:07;;;;;;;18.45;11.82;;;10.90;99.90;;;;;;4989231;28;20049;-60
2023/01/02 05:12:34;;;;;;;19.65;11.90;;;10.80;99.90;;;;;;4986879;28;20064;-61
2023/01/02 05:15:01;;;;;;;19.33;11.30;;;11.10;99.90;;;;;;4989670;28;20050;-61
2023/01/02 05:17:26;;;;;;;16.88;10.38;;;11.20;99.90;;;;;;4989147;28;20045;-60
2023/01/02 05:19:52;;;;;;;12.48;6.50;;;11.40;99.90;;;;;;4989011;28;20482;-60
2023/01/02 05:25:02;;;;;;;17.10;10.38;;;11.40;99.90;;;;;;4969608;28;20604;-60
2023/01/02 05:27:27;;;;;;;22.27;10.55;;;10.90;99.90;;;;;;4968814;28;20046;-60
2023/01/02 05:29:53;;;;;;;15.18;9.98;;;10.90;99.90;;;;;;4968705;28;20406;-60
2023/01/02 05:32:19;;;;;;;18.83;11.40;;;11.00;99.90;;;;;;4969304;28;20517;-61
2023/01/02 05:34:44;;;;;;;14.63;8.95;;;11.20;99.90;;;;;;4969658;28;20082;-61
2023/01/02 05:37:10;;;;;;;21.10;7.50;;;11.20;99.90;;;;;;4969616;28;20069;-60
2023/01/02 05:39:36;;;;;;;13.93;8.15;;;11.50;99.90;;;;;;4969195;28;20078;-61
2023/01/02 05:42:01;;;;;;;17.80;10.30;;;11.60;99.90;;;;;;4983679;28;20039;-59
2023/01/02 05:44:27;;;;;;;19.30;10.05;;;11.20;99.90;;;;;;4969844;28;20046;-60
2023/01/02 05:46:53;;;;;;;17.05;10.10;;;11.50;99.90;;;;;;4970144;28;20509;-60
2023/01/02 05:49:18;;;;;;;16.83;9.40;;;11.00;99.90;;;;;;4968969;28;20135;-60
2023/01/02 05:51:44;;;;;;;15.90;8.20;;;11.30;99.90;;;;;;4969501;28;20058;-60
2023/01/02 05:54:10;;;;;;;14.48;9.70;;;11.20;99.90;;;;;;4984272;28;20043;-61
2023/01/02 05:56:35;;;;;;;10.82;6.00;;;11.50;99.90;;;;;;4968711;28;20043;-60
2023/01/02 05:59:04;;;;;;;12.90;8.13;;;11.70;99.90;;;;;;4969043;28;20034;-60
2023/01/02 06:01:30;;;;;;;15.75;9.55;;;11.10;99.90;;;;;;4969298;28;20391;-60
2023/01/02 06:03:58;;;;;;;18.08;9.63;;;11.10;99.90;;;;;;4969547;28;20094;-60
2023/01/02 06:06:28;;;;;;;17.92;8.82;;;11.50;99.90;;;;;;4968818;28;20050;-61
2023/01/02 06:08:54;;;;;;;14.65;8.10;;;11.20;99.90;;;;;;4968999;28;20047;-60
2023/01/02 06:11:20;;;;;;;14.75;8.35;;;11.70;99.90;;;;;;4968388;28;20505;-61
2023/01/02 06:13:46;;;;;;;19.27;8.75;;;11.70;99.90;;;;;;4968120;28;20073;-60
2023/01/02 06:16:11;;;;;;;15.35;8.48;;;11.50;99.90;;;;;;4967819;28;20058;-60
2023/01/02 06:18:38;;;;;;;12.82;8.80;;;11.20;99.90;;;;;;4968746;28;20046;-60
2023/01/02 06:21:07;;;;;;;16.38;9.80;;;11.10;99.90;;;;;;4972739;28;20046;-60
2023/01/02 06:23:33;;;;;;;17.23;9.30;;;11.50;99.90;;;;;;4974591;28;20042;-60
2023/01/02 06:26:09;;;;;;;17.63;10.23;;;11.10;99.90;;;;;;4968397;28;20909;-60
2023/01/02 06:28:35;;;;;;;12.93;8.00;;;11.60;99.90;;;;;;4968121;28;20129;-60
2023/01/02 06:31:03;;;;;;;19.77;9.65;;;11.10;99.90;;;;;;4968629;28;20039;-61
2023/01/02 06:33:29;;;;;;;13.65;8.55;;;11.50;99.90;;;;;;4969028;28;20043;-61
2023/01/02 06:35:58;;;;;;;14.25;9.25;;;11.40;99.90;;;;;;4968174;28;20474;-60
2023/01/02 06:38:24;;;;;;;15.93;9.25;;;11.10;99.90;;;;;;4968429;28;20810;-61
2023/01/02 06:40:54;;;;;;;16.88;9.63;;;11.10;99.90;;;;;;4968385;28;20122;-61
2023/01/02 06:43:20;;;;;;;15.15;8.65;;;11.70;99.90;;;;;;4968082;28;20057;-60
2023/01/02 06:45:46;;;;;;;19.17;8.48;;;11.40;99.90;;;;;;4968503;28;20054;-59
2023/01/02 06:48:11;;;;;;;17.17;9.55;;;11.70;99.90;;;;;;4968630;28;20039;-61
2023/01/02 06:50:37;;;;;;;10.63;5.95;;;11.70;99.90;;;;;;4968735;28;20133;-61
2023/01/02 06:53:03;;;;;;;13.13;6.03;;;11.30;99.90;;;;;;4967862;28;20050;-61
2023/01/02 06:55:28;;;;;;;14.13;6.97;;;11.70;99.90;;;;;;4967598;28;20039;-62
2023/01/02 06:57:54;;;;;;;11.35;6.97;;;11.10;99.90;;;;;;4968375;28;20057;-61
2023/01/02 07:00:19;;;;;;;11.68;7.25;;;11.70;99.90;;;;;;4966104;28;20050;-61
2023/01/02 07:02:45;;;;;;;15.15;7.95;;;11.10;99.90;;;;;;4968141;28;20049;-61
2023/01/02 07:05:11;;;;;;;14.93;7.60;;;11.30;99.90;;;;;;4967841;28;20102;-61
2023/01/02 07:07:37;;;;;;;13.70;8.13;;;11.40;99.90;;;;;;4968237;28;20050;-61
2023/01/02 07:10:03;;;;;;;11.43;7.07;;;11.60;99.90;;;;;;4967451;28;20438;-61
2023/01/02 07:12:29;;;;;;;10.88;7.03;;;11.60;99.90;;;;;;4967532;28;20134;-61
2023/01/02 07:14:55;;;;;;;11.07;6.57;;;11.60;99.90;;;;;;4967578;28;20130;-60
2023/01/02 07:17:20;;;;;;;10.35;6.25;;;11.20;99.90;;;;;;4967477;28;20486;-61
2023/01/02 07:19:46;;;;;;;10.88;6.95;;;11.60;99.90;;;;;;4967579;28;20047;-61
2023/01/02 07:22:11;;;;;;;12.10;6.78;;;11.30;99.90;;;;;;4978775;28;20050;-61
2023/01/02 07:24:37;;;;;;;13.68;6.88;;;11.50;99.90;;;;;;4967292;28;20042;-61
2023/01/02 07:27:03;;;;;;;5.72;3.17;;;11.10;99.90;;;;;;4965400;28;20154;-61
2023/01/02 07:29:29;;;;;;;6.18;4.20;;;11.40;99.90;;;;;;4967818;28;20493;-61
2023/01/02 07:31:54;;;;;;;8.75;3.90;;;11.50;99.90;;;;;;4967580;28;20453;-61
2023/01/02 07:34:20;;;;;;;4.45;3.03;;;11.50;99.90;;;;;;4965576;28;20492;-61
2023/01/02 07:36:46;;;;;;;4.55;2.40;;;11.20;99.90;;;;;;4967398;28;20296;-61
2023/01/02 07:39:11;;;;;;;4.70;2.70;;;10.90;99.90;;;;;;4967137;28;20042;-61
2023/01/02 07:41:37;;;;;;;4.07;2.58;;;11.50;99.90;;;;;;4966217;28;20189;-61
2023/01/02 07:44:03;;;;;;;4.78;3.30;;;11.00;99.90;;;;;;4966237;28;20053;-61
2023/01/02 07:46:28;;;;;;;5.38;3.20;;;10.70;99.90;;;;;;4966889;28;20045;-60
2023/01/02 07:48:54;;;;;;;5.07;3.35;;;11.30;99.90;;;;;;4966605;28;20797;-60
2023/01/02 07:51:20;;;;;;;4.60;3.17;;;11.00;99.90;;;;;;4965794;28;20482;-61
2023/01/02 07:53:45;;;;;;;4.40;3.40;;;11.10;99.90;;;;;;4966631;28;20486;-61
2023/01/02 07:56:11;;;;;;;4.88;3.20;;;10.50;99.90;;;;;;4965651;28;20042;-61
2023/01/02 07:58:37;;;;;;;4.10;2.35;;;10.50;99.90;;;;;;4966309;28;20132;-61
2023/01/02 08:01:08;;;;;;;3.95;2.65;;;10.60;99.90;;;;;;4966228;28;20127;-60
2023/01/02 08:03:34;;;;;;;4.22;3.15;;;10.30;99.90;;;;;;4966399;28;20046;-61
2023/01/02 08:06:04;;;;;;;4.28;2.83;;;10.50;99.90;;;;;;4966629;28;20053;-60
2023/01/02 08:08:30;;;;;;;4.22;2.60;;;10.00;99.90;;;;;;4965944;28;20150;-61
2023/01/02 08:10:56;;;;;;;5.20;3.00;;;10.10;99.90;;;;;;4964958;28;20129;-61
2023/01/02 08:13:21;;;;;;;5.20;3.10;;;9.90;99.90;;;;;;4966733;28;20062;-61
2023/01/02 08:15:47;;;;;;;4.72;3.00;;;9.60;99.90;;;;;;4966420;28;20100;-61
2023/01/02 08:18:13;;;;;;;6.15;3.38;;;9.50;99.90;;;;;;4966628;28;20050;-60
2023/01/02 08:20:38;;;;;;;6.30;4.10;;;9.10;99.90;;;;;;4969325;28;20366;-61
2023/01/02 08:23:04;;;;;;;6.45;3.90;;;9.60;99.90;;;;;;4973726;28;20217;-61
2023/01/02 08:25:30;;;;;;;7.32;3.17;;;9.60;99.90;;;;;;4980528;28;20050;-61
2023/01/02 08:27:55;;;;;;;4.20;2.47;;;9.50;99.90;;;;;;4966779;28;20059;-61
2023/01/02 08:30:21;;;;;;;5.20;2.40;;;8.90;99.90;;;;;;4966540;28;20109;-61
2023/01/02 08:32:47;;;;;;;4.88;2.15;;;8.70;99.90;;;;;;4965758;28;20046;-62
2023/01/02 08:35:12;;;;;;;3.55;2.00;;;9.10;99.90;;;;;;4966520;28;20054;-61
2023/01/02 08:37:38;;;;;;;3.95;1.60;;;8.90;99.90;;;;;;4966307;28;20189;-61
2023/01/02 08:40:04;;;;;;;2.83;1.50;;;8.40;99.90;;;;;;4966803;28;20050;-60
2023/01/02 08:42:30;;;;;;;2.13;1.20;;;8.40;99.90;;;;;;4964967;28;20057;-61
2023/01/02 08:44:56;;;;;;;3.13;1.73;;;8.70;99.90;;;;;;4966372;28;20042;-61
2023/01/02 08:47:21;;;;;;;2.95;1.40;;;8.20;99.90;;;;;;4966485;28;20050;-61
2023/01/02 08:49:47;;;;;;;2.78;1.40;;;8.50;99.90;;;;;;4965750;28;20496;-61
2023/01/02 08:52:13;;;;;;;3.25;1.60;;;8.40;99.90;;;;;;4966077;28;20169;-61
2023/01/02 08:54:38;;;;;;;4.05;1.88;;;8.10;99.90;;;;;;4965700;28;20568;-61
2023/01/02 08:57:04;;;;;;;3.15;1.52;;;8.50;99.90;;;;;;4964982;28;20556;-61
2023/01/02 08:59:29;;;;;;;4.18;1.55;;;8.50;99.90;;;;;;4965188;28;20047;-61
2023/01/02 09:01:55;;;;;;;4.10;1.70;;;8.10;99.90;;;;;;4966068;28;20698;-61
2023/01/02 09:04:21;;;;;;;4.22;1.98;;;8.20;99.90;;;;;;4980934;28;20039;-61
2023/01/02 09:06:47;;;;;;;3.80;2.25;;;8.10;99.90;;;;;;4965420;28;20042;-61
2023/01/02 09:09:14;;;;;;;5.60;2.45;;;8.00;99.90;;;;;;4965636;28;20596;-61
2023/01/02 09:11:48;;;;;;;3.83;2.08;;;8.50;99.90;;;;;;4965135;28;20547;-61
2023/01/02 09:14:16;;;;;;;4.60;2.08;;;8.40;99.90;;;;;;4965254;28;20059;-61
2023/01/02 09:16:42;;;;;;;3.58;1.90;;;7.90;99.90;;;;;;4965932;28;20101;-61
2023/01/02 09:19:07;;;;;;;3.88;1.98;;;8.50;99.90;;;;;;4964586;28;20055;-61
2023/01/02 09:21:33;;;;;;;2.78;1.38;;;8.50;99.90;;;;;;4973912;28;20046;-61
2023/01/02 09:23:59;;;;;;;4.70;1.55;;;7.90;99.90;;;;;;4968043;28;20061;-61
2023/01/02 09:26:25;;;;;;;3.17;1.70;;;8.10;99.90;;;;;;4965208;28;20150;-61
2023/01/02 09:28:51;;;;;;;4.00;1.95;;;8.50;99.90;;;;;;4965375;28;20417;-60
2023/01/02 09:31:20;;;;;;;4.78;2.38;;;8.30;99.90;;;;;;4965212;28;20043;-61
2023/01/02 09:33:47;;;;;;;5.03;2.25;;;8.50;99.90;;;;;;4965589;28;20118;-61
2023/01/02 09:36:15;;;;;;;3.33;1.70;;;8.00;99.90;;;;;;4965291;28;20142;-61
2023/01/02 09:38:41;;;;;;;4.90;2.42;;;8.40;99.90;;;;;;4979969;28;20402;-61
2023/01/02 09:41:29;;;;;;;4.35;2.00;;;8.20;99.90;;;;;;4963948;28;20058;-61
2023/01/02 09:44:07;;;;;;;3.78;1.80;;;8.20;99.90;;;;;;4964897;28;20051;-61
2023/01/02 09:46:44;;;;;;;3.97;2.15;;;8.20;99.90;;;;;;4965665;28;20042;-61
2023/01/02 09:49:14;;;;;;;5.03;1.95;;;8.40;99.90;;;;;;4966397;28;20442;-61
2023/01/02 09:51:42;;;;;;;4.38;1.80;;;8.50;99.90;;;;;;4969153;28;20058;-61
2023/01/02 09:54:18;;;;;;;3.33;2.05;;;8.30;99.90;;;;;;4969052;28;20053;-61
2023/01/02 09:56:49;;;;;;;3.50;2.05;;;8.30;99.90;;;;;;4968131;28;20039;-61
2023/01/02 09:59:29;;;;;;;3.92;1.60;;;8.10;99.90;;;;;;4968978;28;20458;-61
2023/01/02 10:02:07;;;;;;;4.47;1.80;;;8.50;99.90;;;;;;4968978;28;20255;-61
2023/01/02 10:05:17;;;;;;;4.40;1.92;;;8.50;99.90;;;;;;4968621;28;20481;-61
2023/01/02 10:08:09;;;;;;;4.22;1.67;;;8.50;99.90;;;;;;4956525;28;20051;-61
2023/01/02 10:10:40;;;;;;;3.92;1.98;;;8.50;99.90;;;;;;4967815;28;20054;-61
2023/01/02 10:13:26;;;;;;;3.42;1.70;;;8.10;99.90;;;;;;4968330;28;20513;-61
2023/01/02 10:15:53;;;;;;;3.65;1.55;;;8.50;99.90;;;;;;4968218;28;20093;-61
2023/01/02 10:18:51;;;;;;;4.20;1.80;;;8.40;99.90;;;;;;4951535;28;20572;-61
2023/01/02 10:21:24;;;;;;;4.05;1.70;;;8.40;99.90;;;;;;4959856;28;20062;-60
2023/01/02 10:23:54;;;;;;;6.07;2.10;;;8.10;99.90;;;;;;4972289;28;20061;-61
2023/01/02 10:26:24;;;;;;;4.30;1.90;;;8.10;99.90;;;;;;4968069;28;20047;-61
2023/01/02 10:29:17;;;;;;;4.65;2.00;;;8.70;99.90;;;;;;4968376;28;20046;-61
2023/01/02 10:31:48;;;;;;;4.72;2.20;;;8.20;99.90;;;;;;4968022;28;20102;-61
2023/01/02 10:34:20;;;;;;;5.13;2.50;;;8.20;99.90;;;;;;4968983;28;20118;-61
2023/01/02 10:36:47;;;;;;;5.97;2.70;;;8.20;99.90;;;;;;4988036;28;20049;-59
2023/01/02 10:39:18;;;;;;;2.88;2.03;;;8.30;99.90;;;;;;4988142;28;20141;-61
2023/01/02 10:41:48;;;;;;;4.57;2.55;;;8.20;99.90;;;;;;4987468;28;20038;-59
2023/01/02 10:44:34;;;;;;;4.47;2.75;;;8.20;99.90;;;;;;4987902;28;20054;-61
2023/01/02 10:47:11;;;;;;;;;;;8.40;99.90;;;;;;4988425;28;20081;-61
2023/01/02 10:49:39;;;;;;;4.15;2.40;;;8.10;99.90;;;;;;4987719;28;19922;-60
2023/01/02 10:52:32;;;;;;;3.80;2.40;;;8.50;99.90;;;;;;4986894;28;20041;-61
2023/01/02 10:54:58;;;;;;;4.57;2.45;;;8.50;99.90;;;;;;4978189;28;20409;-61
2023/01/02 10:57:45;;;;;;;5.57;2.47;;;8.30;99.90;;;;;;4987070;28;20038;-61
2023/01/02 11:00:16;;;;;;;5.45;2.55;;;8.50;99.90;;;;;;4987613;28;20502;-61
2023/01/02 11:02:48;;;;;;;4.38;2.40;;;8.40;99.90;;;;;;4986374;28;20050;-61
2023/01/02 11:05:23;;;;;;;4.50;2.67;;;8.00;99.90;;;;;;4987814;28;20050;-59
2023/01/02 11:07:50;;;;;;;4.15;2.28;;;8.40;99.90;;;;;;4985734;28;20054;-61
2023/01/02 11:10:28;;;;;;;4.78;2.45;;;7.80;99.90;;;;;;4986690;28;20109;-61
2023/01/02 11:12:53;;;;;;;6.47;2.78;;;8.40;99.90;;;;;;4987076;28;20514;-61
2023/01/02 11:15:29;;;;;;;5.72;2.60;;;8.20;99.90;;;;;;4986297;28;20113;-61
2023/01/02 11:17:56;;;;;;;6.07;3.25;;;7.80;99.90;;;;;;4987525;28;20053;-61
2023/01/02 11:20:27;;;;;;;6.20;3.10;;;7.90;99.90;;;;;;4984462;28;20046;-61
2023/01/02 11:22:56;;;;;;;5.47;3.33;;;7.80;99.90;;;;;;4975499;28;20129;-61
2023/01/02 11:25:27;;;;;;;4.88;2.42;;;8.00;99.90;;;;;;4967004;28;20045;-61
2023/01/02 11:27:58;;;;;;;4.85;2.92;;;8.00;99.90;;;;;;4967694;28;20317;-61
2023/01/02 11:30:46;;;;;;;5.53;2.58;;;8.00;99.90;;;;;;4967102;28;20117;-61
2023/01/02 11:33:27;;;;;;;4.50;2.28;;;8.40;99.90;;;;;;4968794;28;20158;-61
2023/01/02 11:35:54;;;;;;;3.65;2.00;;;8.10;99.90;;;;;;4986408;28;20514;-61
2023/01/02 11:38:26;;;;;;;3.92;2.20;;;7.90;99.90;;;;;;4986611;28;20178;-61
2023/01/02 11:41:01;;;;;;;4.22;1.80;;;8.50;99.90;;;;;;4985772;28;20046;-61
2023/01/02 11:43:47;;;;;;;5.32;1.85;;;8.60;99.90;;;;;;4987001;28;20078;-61
2023/01/02 11:46:35;;;;;;;4.88;2.05;;;8.60;99.90;;;;;;4986512;28;20054;-61
2023/01/02 11:49:15;;;;;;;4.45;2.10;;;8.30;99.90;;;;;;4985740;28;20055;-61
2023/01/02 11:51:41;;;;;;;4.20;2.60;;;8.50;99.90;;;;;;4985824;28;20049;-61
2023/01/02 11:54:20;;;;;;;5.78;3.00;;;8.20;99.90;;;;;;4986008;28;20046;-61
2023/01/02 11:56:46;;;;;;;5.88;3.03;;;8.70;99.90;;;;;;4983926;28;20126;-61
2023/01/02 11:59:17;;;;;;;5.40;2.92;;;8.80;99.90;;;;;;4986029;28;20572;-61
2023/01/02 12:01:52;;;;;;;6.05;2.67;;;8.30;99.90;;;;;;4986699;28;20046;-61
2023/01/02 12:04:18;;;;;;;4.38;2.13;;;8.40;99.90;;;;;;4985674;28;20050;-61
2023/01/02 12:07:09;;;;;;;4.75;2.13;;;8.30;99.90;;;;;;4987001;28;20136;-61
2023/01/02 12:09:53;;;;;;;4.80;2.30;;;8.70;99.90;;;;;;4985682;28;20510;-61
2023/01/02 12:13:06;;;;;;;4.47;2.15;;;8.50;99.90;;;;;;4986337;28;20113;-61
2023/01/02 12:15:40;;;;;;;5.90;2.70;;;8.60;99.90;;;;;;4982339;28;20050;-60
2023/01/02 12:18:22;;;;;;;4.95;2.40;;;8.70;99.90;;;;;;4985603;28;20089;-61
2023/01/02 12:21:00;;;;;;;4.93;1.83;;;8.40;99.90;;;;;;4980686;28;20501;-61
2023/01/02 12:23:51;;;;;;;5.90;2.70;;;8.60;99.90;;;;;;4978650;28;20053;-61
2023/01/02 12:26:27;;;;;;;8.00;2.38;;;8.50;99.90;;;;;;4985434;28;20050;-61
2023/01/02 12:29:11;;;;;;;4.80;2.00;;;8.80;99.90;;;;;;4986004;28;20677;-61
2023/01/02 12:32:02;;;;;;;4.20;1.67;;;8.80;99.90;;;;;;4986255;28;20050;-61
2023/01/02 12:34:28;;;;;;;6.20;2.08;;;8.70;99.90;;;;;;4985513;28;20457;-61
2023/01/02 12:37:01;;;;;;;5.57;1.88;;;8.80;99.90;;;;;;4985894;28;20053;-61
2023/01/02 12:39:41;;;;;;;7.35;2.30;;;8.60;99.90;;;;;;4983900;28;20078;-61
2023/01/02 12:42:09;;;;;;;5.72;1.77;;;8.70;99.90;;;;;;4984211;28;20046;-61
2023/01/02 12:44:51;;;;;;;4.30;1.67;;;8.60;99.90;;;;;;4985334;28;20054;-61
2023/01/02 12:47:35;;;;;;;5.70;2.10;;;8.90;99.90;;;;;;4986152;28;20042;-61
2023/01/02 12:50:26;;;;;;;4.72;2.05;;;8.60;99.90;;;;;;4985219;28;20043;-61
2023/01/02 12:52:51;;;;;;;6.60;1.90;;;8.60;99.90;;;;;;4985905;28;20043;-61
2023/01/02 12:55:32;;;;;;;5.65;2.08;;;8.80;99.90;;;;;;4984621;28;20588;-61
2023/01/02 12:58:28;;;;;;;7.80;2.78;;;8.90;99.90;;;;;;4985496;28;20113;-61
2023/01/02 13:01:01;;;;;;;7.20;2.30;;;8.80;99.90;;;;;;4982448;28;20054;-61
2023/01/02 13:03:26;;;;;;;7.30;2.28;;;8.40;99.90;;;;;;4985343;28;20047;-61
2023/01/02 13:06:04;;;;;;;10.18;2.25;;;8.80;99.90;;;;;;4985141;28;20536;-61